createdAt,value
2018-06-24T00:00:26.228Z,15.27
2018-06-24T00:02:55.545Z,15.27
2018-06-24T00:05:24.851Z,15.24
2018-06-24T00:07:54.154Z,15.20
2018-06-24T00:10:23.473Z,15.23
2018-06-24T00:12:52.778Z,15.23
2018-06-24T00:15:22.048Z,15.17
2018-06-24T00:17:52.357Z,15.16
2018-06-24T00:20:21.385Z,15.17
2018-06-24T00:22:50.688Z,15.15
2018-06-24T00:25:19.774Z,15.15
2018-06-24T00:27:49.098Z,15.14
2018-06-24T00:30:18.494Z,15.15
2018-06-24T00:32:47.855Z,15.18
2018-06-24T00:35:20.489Z,15.21
2018-06-24T00:37:49.969Z,15.23
2018-06-24T00:40:19.286Z,15.25
2018-06-24T00:42:48.615Z,15.24
2018-06-24T00:45:17.958Z,15.25
2018-06-24T00:47:47.394Z,15.26
2018-06-24T00:50:16.852Z,15.25
2018-06-24T00:52:46.166Z,15.25
2018-06-24T00:55:15.248Z,15.23
2018-06-24T00:57:44.668Z,15.27
2018-06-24T01:00:16.181Z,15.24
2018-06-24T01:02:45.687Z,15.23
2018-06-24T01:05:16.216Z,15.20
2018-06-24T01:07:46.035Z,15.18
2018-06-24T01:10:15.375Z,15.15
2018-06-24T01:12:44.772Z,15.12
2018-06-24T01:15:14.120Z,15.12
2018-06-24T01:17:43.710Z,15.12
2018-06-24T01:20:13.165Z,15.11
2018-06-24T01:22:42.503Z,15.10
2018-06-24T01:25:11.983Z,15.07
2018-06-24T01:27:41.296Z,15.03
2018-06-24T01:30:10.688Z,14.99
2018-06-24T01:32:39.809Z,14.93
2018-06-24T01:35:09.114Z,14.90
2018-06-24T01:37:38.428Z,14.90
2018-06-24T01:40:07.713Z,14.85
2018-06-24T01:42:37.883Z,14.86
2018-06-24T01:45:07.197Z,14.84
2018-06-24T01:47:36.244Z,14.82
2018-06-24T01:50:05.553Z,14.79
2018-06-24T01:52:34.820Z,14.79
2018-06-24T01:55:04.173Z,14.78
2018-06-24T01:57:33.649Z,14.76
2018-06-24T02:00:03.333Z,14.73
2018-06-24T02:02:32.651Z,14.73
2018-06-24T02:05:01.952Z,14.70
2018-06-24T02:07:31.216Z,14.67
2018-06-24T02:10:00.473Z,14.65
2018-06-24T02:12:29.759Z,14.61
2018-06-24T02:14:59.179Z,14.58
2018-06-24T02:17:28.449Z,14.54
2018-06-24T02:19:57.804Z,14.47
2018-06-24T02:22:27.061Z,14.41
2018-06-24T02:24:56.407Z,14.34
2018-06-24T02:27:25.708Z,14.31
2018-06-24T02:29:55.005Z,14.23
2018-06-24T02:32:24.281Z,14.18
2018-06-24T02:34:53.557Z,14.14
2018-06-24T02:37:22.889Z,14.13
2018-06-24T02:39:52.334Z,14.09
2018-06-24T02:42:21.646Z,14.03
2018-06-24T02:44:51.025Z,14.00
2018-06-24T02:47:20.317Z,14.04
2018-06-24T02:49:49.649Z,14.03
2018-06-24T02:52:18.951Z,14.06
2018-06-24T02:54:48.380Z,14.05
2018-06-24T02:57:17.678Z,14.03
2018-06-24T02:59:47.002Z,14.03
2018-06-24T03:02:16.452Z,14.06
2018-06-24T03:04:45.735Z,14.05
2018-06-24T03:07:15.165Z,14.06
2018-06-24T03:09:44.462Z,14.05
2018-06-24T03:12:13.807Z,14.06
2018-06-24T03:14:43.100Z,14.02
2018-06-24T03:17:12.377Z,13.98
2018-06-24T03:19:41.761Z,13.95
2018-06-24T03:22:11.199Z,13.83
2018-06-24T03:24:40.512Z,13.85
2018-06-24T03:27:09.910Z,13.77
2018-06-24T03:29:39.236Z,13.75
2018-06-24T03:32:08.541Z,13.70
2018-06-24T03:34:37.869Z,13.67
2018-06-24T03:37:07.155Z,13.70
2018-06-24T03:39:36.464Z,13.65
2018-06-24T03:42:05.893Z,13.65
2018-06-24T03:44:35.174Z,13.56
2018-06-24T03:47:04.597Z,13.55
2018-06-24T03:49:34.972Z,13.48
2018-06-24T03:52:04.231Z,13.50
2018-06-24T03:54:33.537Z,13.48
2018-06-24T03:57:02.891Z,13.45
2018-06-24T03:59:31.914Z,13.45
2018-06-24T04:02:01.335Z,13.48
2018-06-24T04:04:30.689Z,13.47
2018-06-24T04:07:00.102Z,13.49
2018-06-24T04:09:29.412Z,13.56
2018-06-24T04:11:58.785Z,13.60
2018-06-24T04:14:28.062Z,13.59
2018-06-24T04:16:57.500Z,13.61
2018-06-24T04:19:26.829Z,13.62
2018-06-24T04:21:56.120Z,13.65
2018-06-24T04:24:25.472Z,13.67
2018-06-24T04:26:54.755Z,13.71
2018-06-24T04:29:24.065Z,13.73
2018-06-24T04:31:53.430Z,13.76
2018-06-24T04:34:22.798Z,13.77
2018-06-24T04:36:52.126Z,13.79
2018-06-24T04:39:21.126Z,13.83
2018-06-24T04:41:50.569Z,13.88
2018-06-24T04:44:19.888Z,13.95
2018-06-24T04:46:49.138Z,14.07
2018-06-24T04:49:18.531Z,14.17
2018-06-24T04:51:47.825Z,14.32
2018-06-24T04:54:17.119Z,14.61
2018-06-24T04:56:46.486Z,14.85
2018-06-24T04:59:15.930Z,15.00
2018-06-24T05:01:45.581Z,15.12
2018-06-24T05:04:15.023Z,15.25
2018-06-24T05:06:44.381Z,15.24
2018-06-24T05:09:14.034Z,15.36
2018-06-24T05:11:43.380Z,15.46
2018-06-24T05:14:12.802Z,15.52
2018-06-24T05:16:42.136Z,15.48
2018-06-24T05:19:11.512Z,15.49
2018-06-24T05:21:40.832Z,15.50
2018-06-24T05:24:14.451Z,15.46
2018-06-24T05:26:43.736Z,15.55
2018-06-24T05:29:13.133Z,15.60
2018-06-24T05:31:42.498Z,15.86
2018-06-24T05:34:11.821Z,15.99
2018-06-24T05:36:41.137Z,16.14
2018-06-24T05:39:12.262Z,16.14
2018-06-24T05:41:41.742Z,16.05
2018-06-24T05:44:11.218Z,16.00
2018-06-24T05:46:40.492Z,15.91
2018-06-24T05:49:09.805Z,15.97
2018-06-24T05:51:39.174Z,15.95
2018-06-24T05:54:08.483Z,15.94
2018-06-24T05:56:37.789Z,15.93
2018-06-24T05:59:06.793Z,16.15
2018-06-24T06:01:36.099Z,16.39
2018-06-24T06:04:05.190Z,16.77
2018-06-24T06:06:35.269Z,17.04
2018-06-24T06:09:08.258Z,17.28
2018-06-24T06:11:37.587Z,17.31
2018-06-24T06:14:07.092Z,17.55
2018-06-24T06:16:36.405Z,17.90
2018-06-24T06:19:05.957Z,18.09
2018-06-24T06:21:35.219Z,17.97
2018-06-24T06:24:04.538Z,18.24
2018-06-24T06:26:33.868Z,18.39
2018-06-24T06:29:03.121Z,18.53
2018-06-24T06:31:32.457Z,18.86
2018-06-24T06:34:02.024Z,19.05
2018-06-24T06:36:31.029Z,18.79
2018-06-24T06:39:00.326Z,19.06
2018-06-24T06:41:29.623Z,18.60
2018-06-24T06:43:58.968Z,18.41
2018-06-24T06:46:28.275Z,18.53
2018-06-24T06:48:57.551Z,18.33
2018-06-24T06:51:26.804Z,18.19
2018-06-24T06:53:56.107Z,18.15
2018-06-24T06:56:25.363Z,18.17
2018-06-24T06:58:54.597Z,18.29
2018-06-24T07:01:24.779Z,18.19
2018-06-24T07:03:54.425Z,18.29
2018-06-24T07:06:23.702Z,18.18
2018-06-24T07:08:52.969Z,17.86
2018-06-24T07:11:22.675Z,17.86
2018-06-24T07:13:52.094Z,17.58
2018-06-24T07:16:21.488Z,17.51
2018-06-24T07:18:50.792Z,17.53
2018-06-24T07:21:20.727Z,17.60
2018-06-24T07:23:50.046Z,17.73
2018-06-24T07:26:19.366Z,17.79
2018-06-24T07:28:48.729Z,17.73
2018-06-24T07:31:18.137Z,18.04
2018-06-24T07:33:47.764Z,18.09
2018-06-24T07:36:17.106Z,18.24
2018-06-24T07:38:46.419Z,18.25
2018-06-24T07:41:15.932Z,18.29
2018-06-24T07:43:45.393Z,18.43
2018-06-24T07:46:14.723Z,18.25
2018-06-24T07:48:44.116Z,18.36
2018-06-24T07:51:13.428Z,18.53
2018-06-24T07:53:42.767Z,18.70
2018-06-24T07:56:12.271Z,18.86
2018-06-24T07:58:41.695Z,18.91
2018-06-24T08:01:11.309Z,19.18
2018-06-24T08:03:40.583Z,19.46
2018-06-24T08:06:09.847Z,19.63
2018-06-24T08:08:39.239Z,19.68
2018-06-24T08:11:08.753Z,19.87
2018-06-24T08:13:38.074Z,19.96
2018-06-24T08:16:07.359Z,20.20
2018-06-24T08:18:36.772Z,19.95
2018-06-24T08:21:06.117Z,20.15
2018-06-24T08:23:35.512Z,20.38
2018-06-24T08:26:04.951Z,20.69
2018-06-24T08:28:43.170Z,20.70
2018-06-24T08:31:19.363Z,20.76
2018-06-24T08:33:57.590Z,21.17
2018-06-24T08:36:33.269Z,21.57
2018-06-24T08:39:02.742Z,21.62
2018-06-24T08:41:31.985Z,21.80
2018-06-24T08:44:01.293Z,22.10
2018-06-24T08:46:33.580Z,21.87
2018-06-24T08:49:04.259Z,22.18
2018-06-24T08:51:33.655Z,22.11
2018-06-24T08:54:03.143Z,22.01
2018-06-24T08:56:32.479Z,22.35
2018-06-24T08:59:01.785Z,22.49
2018-06-24T09:01:31.191Z,22.29
2018-06-24T09:04:00.482Z,21.91
2018-06-24T09:06:29.836Z,22.05
2018-06-24T09:08:59.264Z,22.12
2018-06-24T09:11:28.730Z,21.84
2018-06-24T09:13:58.198Z,21.78
2018-06-24T09:16:27.602Z,21.58
2018-06-24T09:18:56.967Z,21.42
2018-06-24T09:21:26.360Z,21.34
2018-06-24T09:23:55.721Z,21.88
2018-06-24T09:26:25.165Z,22.40
2018-06-24T09:28:54.490Z,22.83
2018-06-24T09:31:23.761Z,23.41
2018-06-24T09:33:53.081Z,23.68
2018-06-24T09:36:22.422Z,23.98
2018-06-24T09:38:51.702Z,23.95
2018-06-24T09:41:20.995Z,23.85
2018-06-24T09:43:50.365Z,23.31
2018-06-24T09:46:19.605Z,23.49
2018-06-24T09:48:48.989Z,24.05
2018-06-24T09:51:18.309Z,23.65
2018-06-24T09:53:47.660Z,23.52
2018-06-24T09:56:17.040Z,24.04
2018-06-24T09:58:46.372Z,24.09
2018-06-24T10:01:15.774Z,23.60
2018-06-24T10:03:45.072Z,23.33
2018-06-24T10:06:14.434Z,23.06
2018-06-24T10:08:44.082Z,23.78
2018-06-24T10:11:13.448Z,24.61
2018-06-24T10:13:42.782Z,24.67
2018-06-24T10:16:12.259Z,24.64
2018-06-24T10:18:41.622Z,24.62
2018-06-24T10:21:11.004Z,25.07
2018-06-24T10:23:40.427Z,24.78
2018-06-24T10:26:09.703Z,24.90
2018-06-24T10:28:39.011Z,24.77
2018-06-24T10:31:09.364Z,26.10
2018-06-24T10:33:38.695Z,26.90
2018-06-24T10:36:08.122Z,26.63
2018-06-24T10:38:37.443Z,26.63
2018-06-24T10:41:06.914Z,25.88
2018-06-24T10:43:36.175Z,25.80
2018-06-24T10:46:05.520Z,26.84
2018-06-24T10:48:34.902Z,27.17
2018-06-24T10:51:04.234Z,26.18
2018-06-24T10:53:33.491Z,26.70
2018-06-24T10:56:02.846Z,26.90
2018-06-24T10:58:32.164Z,26.82
2018-06-24T11:01:01.578Z,26.68
2018-06-24T11:03:30.892Z,26.38
2018-06-24T11:06:00.207Z,25.97
2018-06-24T11:08:29.520Z,25.99
2018-06-24T11:10:58.786Z,26.19
2018-06-24T11:13:28.137Z,26.40
2018-06-24T11:15:57.571Z,26.42
2018-06-24T11:18:26.843Z,25.74
2018-06-24T11:20:56.172Z,25.88
2018-06-24T11:23:25.474Z,25.75
2018-06-24T11:25:54.877Z,25.30
2018-06-24T11:28:25.279Z,25.30
2018-06-24T11:30:54.606Z,25.35
2018-06-24T11:33:23.574Z,25.62
2018-06-24T11:35:52.676Z,25.46
2018-06-24T11:38:22.047Z,25.44
2018-06-24T11:40:51.427Z,25.26
2018-06-24T11:43:20.724Z,25.12
2018-06-24T11:45:50.014Z,25.74
2018-06-24T11:48:19.389Z,25.63
2018-06-24T11:50:49.099Z,25.38
2018-06-24T11:53:18.953Z,25.45
2018-06-24T11:55:48.936Z,25.25
2018-06-24T11:58:18.726Z,25.41
2018-06-24T12:00:48.107Z,25.42
2018-06-24T12:03:17.463Z,25.46
2018-06-24T12:05:47.015Z,25.39
2018-06-24T12:08:16.458Z,25.12
2018-06-24T12:10:45.955Z,24.94
2018-06-24T12:13:15.377Z,24.92
2018-06-24T12:15:44.880Z,25.25
2018-06-24T12:18:14.791Z,25.10
2018-06-24T12:20:44.217Z,24.72
2018-06-24T12:23:13.605Z,24.58
2018-06-24T12:25:43.042Z,24.86
2018-06-24T12:28:12.510Z,24.81
2018-06-24T12:30:41.864Z,25.15
2018-06-24T12:33:11.275Z,24.41
2018-06-24T12:35:40.698Z,24.52
2018-06-24T12:38:10.072Z,24.46
2018-06-24T12:40:39.182Z,24.44
2018-06-24T12:43:08.528Z,24.59
2018-06-24T12:45:37.902Z,24.15
2018-06-24T12:48:07.237Z,24.54
2018-06-24T12:50:36.884Z,24.34
2018-06-24T12:53:06.325Z,24.07
2018-06-24T12:55:35.647Z,23.62
2018-06-24T12:58:05.012Z,23.21
2018-06-24T13:00:35.986Z,23.23
2018-06-24T13:03:04.857Z,23.00
2018-06-24T13:05:33.947Z,22.75
2018-06-24T13:08:03.236Z,22.81
2018-06-24T13:10:32.588Z,22.82
2018-06-24T13:13:01.991Z,22.79
2018-06-24T13:15:31.314Z,22.69
2018-06-24T13:18:00.630Z,22.49
2018-06-24T13:20:29.777Z,22.61
2018-06-24T13:22:59.229Z,22.68
2018-06-24T13:25:28.486Z,22.54
2018-06-24T13:27:57.934Z,22.58
2018-06-24T13:30:27.277Z,22.58
2018-06-24T13:32:56.609Z,22.52
2018-06-24T13:35:25.988Z,22.61
2018-06-24T13:37:55.361Z,22.66
2018-06-24T13:40:24.706Z,22.45
2018-06-24T13:42:54.001Z,22.38
2018-06-24T13:45:23.301Z,22.23
2018-06-24T13:47:53.389Z,22.19
2018-06-24T13:50:22.804Z,22.33
2018-06-24T13:52:52.131Z,22.31
2018-06-24T13:55:21.469Z,22.28
2018-06-24T13:57:50.735Z,22.01
2018-06-24T14:00:20.098Z,22.18
2018-06-24T14:02:49.263Z,22.20
2018-06-24T14:05:18.519Z,22.11
2018-06-24T14:07:47.912Z,21.98
2018-06-24T14:10:17.378Z,22.26
2018-06-24T14:12:46.743Z,22.62
2018-06-24T14:15:16.021Z,22.75
2018-06-24T14:17:45.640Z,22.91
2018-06-24T14:20:15.086Z,22.86
2018-06-24T14:22:44.449Z,22.55
2018-06-24T14:25:13.566Z,22.34
2018-06-24T14:27:43.021Z,22.03
2018-06-24T14:30:12.378Z,21.83
2018-06-24T14:32:41.479Z,21.81
2018-06-24T14:35:10.787Z,21.64
2018-06-24T14:37:40.125Z,21.75
2018-06-24T14:40:09.253Z,21.92
2018-06-24T14:42:38.532Z,21.89
2018-06-24T14:45:07.549Z,21.92
2018-06-24T14:47:36.831Z,22.12
2018-06-24T14:50:06.291Z,22.03
2018-06-24T14:52:35.544Z,21.59
2018-06-24T14:55:04.921Z,21.35
2018-06-24T14:57:34.018Z,21.00
2018-06-24T15:00:03.558Z,20.93
2018-06-24T15:02:35.229Z,20.79
2018-06-24T15:05:05.667Z,20.76
2018-06-24T15:07:34.914Z,20.62
2018-06-24T15:10:04.820Z,20.41
2018-06-24T15:12:34.327Z,20.40
2018-06-24T15:15:03.520Z,20.12
2018-06-24T15:17:32.829Z,20.13
2018-06-24T15:20:02.175Z,20.03
2018-06-24T15:22:31.810Z,19.75
2018-06-24T15:25:01.310Z,19.60
2018-06-24T15:27:30.342Z,19.69
2018-06-24T15:29:59.700Z,19.84
2018-06-24T15:32:29.077Z,20.13
2018-06-24T15:34:58.362Z,20.42
2018-06-24T15:37:27.689Z,20.76
2018-06-24T15:39:57.048Z,21.11
2018-06-24T15:42:26.439Z,21.55
2018-06-24T15:44:55.842Z,21.61
2018-06-24T15:47:25.388Z,21.57
2018-06-24T15:49:54.655Z,21.47
2018-06-24T15:52:23.940Z,21.19
2018-06-24T15:54:53.358Z,20.94
2018-06-24T15:57:22.698Z,20.90
2018-06-24T15:59:52.021Z,20.77
2018-06-24T16:02:21.104Z,20.53
2018-06-24T16:04:50.360Z,20.54
2018-06-24T16:07:19.610Z,20.32
2018-06-24T16:09:48.968Z,20.28
2018-06-24T16:12:18.393Z,20.00
2018-06-24T16:14:48.143Z,19.80
2018-06-24T16:17:17.586Z,19.81
2018-06-24T16:19:46.945Z,19.65
2018-06-24T16:22:16.261Z,19.59
2018-06-24T16:24:45.642Z,19.44
2018-06-24T16:27:15.024Z,19.42
2018-06-24T16:29:44.543Z,19.38
2018-06-24T16:32:14.052Z,19.32
2018-06-24T16:34:43.538Z,19.44
2018-06-24T16:37:12.813Z,19.52
2018-06-24T16:39:42.217Z,19.73
2018-06-24T16:42:11.518Z,19.72
2018-06-24T16:44:40.914Z,19.87
2018-06-24T16:47:09.989Z,19.84
2018-06-24T16:49:39.329Z,19.81
2018-06-24T16:52:08.618Z,19.88
2018-06-24T16:54:37.955Z,19.86
2018-06-24T16:57:07.009Z,19.82
2018-06-24T16:59:36.377Z,19.74
2018-06-24T17:02:06.082Z,19.65
2018-06-24T17:04:35.354Z,19.83
2018-06-24T17:07:04.949Z,19.64
2018-06-24T17:09:34.241Z,19.55
2018-06-24T17:12:03.540Z,19.46
2018-06-24T17:14:32.894Z,19.42
2018-06-24T17:17:03.265Z,19.26
2018-06-24T17:19:32.521Z,19.33
2018-06-24T17:22:01.655Z,19.24
2018-06-24T17:24:30.742Z,19.27
2018-06-24T17:27:00.089Z,19.26
2018-06-24T17:29:29.449Z,19.06
2018-06-24T17:31:58.876Z,19.08
2018-06-24T17:34:28.149Z,18.99
2018-06-24T17:36:57.566Z,18.91
2018-06-24T17:39:27.041Z,18.78
2018-06-24T17:41:56.389Z,18.85
2018-06-24T17:44:25.630Z,18.76
2018-06-24T17:46:55.057Z,18.77
2018-06-24T17:49:24.419Z,18.79
2018-06-24T17:51:53.711Z,18.79
2018-06-24T17:54:23.013Z,18.85
2018-06-24T17:56:52.567Z,18.89
2018-06-24T17:59:21.867Z,18.84
2018-06-24T18:01:50.957Z,19.08
2018-06-24T18:04:20.412Z,18.87
2018-06-24T18:06:49.722Z,18.75
2018-06-24T18:09:19.011Z,18.69
2018-06-24T18:11:48.381Z,18.73
2018-06-24T18:14:17.812Z,18.82
2018-06-24T18:16:47.336Z,18.77
2018-06-24T18:19:16.808Z,18.77
2018-06-24T18:21:46.140Z,18.67
2018-06-24T18:24:15.574Z,18.62
2018-06-24T18:26:44.987Z,18.50
2018-06-24T18:29:14.371Z,18.61
2018-06-24T18:31:43.709Z,18.52
2018-06-24T18:34:13.018Z,18.59
2018-06-24T18:36:42.484Z,18.44
2018-06-24T18:39:11.874Z,18.46
2018-06-24T18:41:41.211Z,18.42
2018-06-24T18:44:10.466Z,18.47
2018-06-24T18:46:39.898Z,18.48
2018-06-24T18:49:09.280Z,18.54
2018-06-24T18:51:38.571Z,18.55
2018-06-24T18:54:07.926Z,18.50
2018-06-24T18:56:37.345Z,18.48
2018-06-24T18:59:06.583Z,18.41
2018-06-24T19:01:36.019Z,18.30
2018-06-24T19:04:05.483Z,18.33
2018-06-24T19:06:34.813Z,18.17
2018-06-24T19:09:05.996Z,18.10
2018-06-24T19:11:35.347Z,18.09
2018-06-24T19:14:04.628Z,18.03
2018-06-24T19:16:34.110Z,17.99
2018-06-24T19:19:03.409Z,17.97
2018-06-24T19:21:32.705Z,17.93
2018-06-24T19:24:02.037Z,17.92
2018-06-24T19:26:31.391Z,17.93
2018-06-24T19:29:00.806Z,17.82
2018-06-24T19:31:30.141Z,17.81
2018-06-24T19:33:59.550Z,17.81
2018-06-24T19:36:29.001Z,17.71
2018-06-24T19:38:58.362Z,17.68
2018-06-24T19:41:27.679Z,17.62
2018-06-24T19:43:57.091Z,17.57
2018-06-24T19:46:26.176Z,17.53
2018-06-24T19:48:55.601Z,17.50
2018-06-24T19:51:24.901Z,17.50
2018-06-24T19:53:54.252Z,17.50
2018-06-24T19:56:23.698Z,17.42
2018-06-24T19:58:52.975Z,17.40
2018-06-24T20:01:22.359Z,17.35
2018-06-24T20:03:51.611Z,17.14
2018-06-24T20:06:20.894Z,17.06
2018-06-24T20:08:50.434Z,16.91
2018-06-24T20:11:19.749Z,16.84
2018-06-24T20:13:49.075Z,16.77
2018-06-24T20:16:18.399Z,16.71
2018-06-24T20:18:47.720Z,16.65
2018-06-24T20:21:17.276Z,16.60
2018-06-24T20:23:46.872Z,16.55
2018-06-24T20:26:16.366Z,16.51
2018-06-24T20:28:46.013Z,16.41
2018-06-24T20:31:15.424Z,16.37
2018-06-24T20:33:44.927Z,16.38
2018-06-24T20:36:14.439Z,16.39
2018-06-24T20:38:43.727Z,16.29
2018-06-24T20:41:14.209Z,16.28
2018-06-24T20:43:43.568Z,16.34
2018-06-24T20:46:12.924Z,16.32
2018-06-24T20:48:42.206Z,16.32
2018-06-24T20:51:11.565Z,16.38
2018-06-24T20:53:40.854Z,16.38
2018-06-24T20:56:10.249Z,16.33
2018-06-24T20:58:39.747Z,16.32
2018-06-24T21:01:09.105Z,16.32
2018-06-24T21:03:38.529Z,16.33
2018-06-24T21:06:07.806Z,16.37
2018-06-24T21:08:37.105Z,16.34
2018-06-24T21:11:06.583Z,16.31
2018-06-24T21:13:35.987Z,16.29
2018-06-24T21:16:05.317Z,16.34
2018-06-24T21:18:34.640Z,16.34
2018-06-24T21:21:04.029Z,16.31
2018-06-24T21:23:33.528Z,16.22
2018-06-24T21:26:03.086Z,16.21
2018-06-24T21:28:32.363Z,16.24
2018-06-24T21:31:01.704Z,16.22
2018-06-24T21:33:30.993Z,16.15
2018-06-24T21:36:00.304Z,16.14
2018-06-24T21:38:29.613Z,16.12
2018-06-24T21:40:59.074Z,16.10
2018-06-24T21:43:28.228Z,16.08
2018-06-24T21:45:57.609Z,16.11
2018-06-24T21:48:27.075Z,16.09
2018-06-24T21:50:56.453Z,16.11
2018-06-24T21:53:25.830Z,16.10
2018-06-24T21:55:55.067Z,16.06
2018-06-24T21:58:24.327Z,16.08
2018-06-24T22:00:54.436Z,16.11
2018-06-24T22:03:23.809Z,16.10
2018-06-24T22:05:52.824Z,16.03
2018-06-24T22:08:21.887Z,16.07
2018-06-24T22:10:51.256Z,15.97
2018-06-24T22:13:20.577Z,15.82
2018-06-24T22:15:49.814Z,15.75
2018-06-24T22:18:19.305Z,15.69
2018-06-24T22:20:48.638Z,15.65
2018-06-24T22:23:18.054Z,15.58
2018-06-24T22:25:47.453Z,15.54
2018-06-24T22:28:16.745Z,15.49
2018-06-24T22:30:46.104Z,15.49
2018-06-24T22:33:15.514Z,15.47
2018-06-24T22:35:44.919Z,15.48
2018-06-24T22:38:14.382Z,15.48
2018-06-24T22:40:43.774Z,15.50
2018-06-24T22:43:13.174Z,15.51
2018-06-24T22:45:43.392Z,15.58
2018-06-24T22:48:12.650Z,15.73
2018-06-24T22:50:42.137Z,15.67
2018-06-24T22:53:11.587Z,15.67
2018-06-24T22:55:40.945Z,15.82
2018-06-24T22:58:10.247Z,15.74
2018-06-24T23:00:39.586Z,15.80
2018-06-24T23:03:08.866Z,15.95
2018-06-24T23:05:38.195Z,15.86
2018-06-24T23:08:07.536Z,15.78
2018-06-24T23:10:37.848Z,15.77
2018-06-24T23:13:07.603Z,15.78
2018-06-24T23:15:37.036Z,15.78
2018-06-24T23:18:06.394Z,15.80
2018-06-24T23:20:35.758Z,15.82
2018-06-24T23:23:05.266Z,15.82
2018-06-24T23:25:35.456Z,15.73
2018-06-24T23:28:04.887Z,15.72
2018-06-24T23:30:34.253Z,15.70
2018-06-24T23:33:03.574Z,15.77
2018-06-24T23:35:32.965Z,15.74
2018-06-24T23:38:02.284Z,15.78
2018-06-24T23:40:31.571Z,15.82
2018-06-24T23:43:00.853Z,15.80
2018-06-24T23:45:30.197Z,15.89
2018-06-24T23:47:59.542Z,15.78
2018-06-24T23:50:28.856Z,15.78
2018-06-24T23:52:58.169Z,15.73
2018-06-24T23:55:27.491Z,15.77
2018-06-24T23:57:56.798Z,15.76
